Time;durP1;ratioP1;P1;durP2;ratioP2;P2;SDS_P1;SDS_P2;PMS_P1;PMS_P2;Temp;Humidity;BMP_temperature;BMP_pressure;BME280_temperature;BME280_humidity;BME280_pressure;Samples;Min_cycle;Max_cycle;Signal;HPM_P1;HPM_P2
2021/09/02 00:01:31;;;;;;;12.63;3.13;;;;;;;;;;5023414;28;20045;-79
2021/09/02 00:03:57;;;;;;;15.88;3.60;;;;;;;;;;5024424;28;20071;-79
2021/09/02 00:06:23;;;;;;;14.15;3.30;;;;;;;;;;5017635;28;20029;-79
2021/09/02 00:08:49;;;;;;;14.15;3.33;;;;;;;;;;5017861;28;20967;-79
2021/09/02 00:11:15;;;;;;;14.45;3.33;;;;;;;;;;5022672;28;20013;-79
2021/09/02 00:13:42;;;;;;;12.70;3.33;;;;;;;;;;5015052;28;20602;-79
2021/09/02 00:16:08;;;;;;;14.75;3.35;;;;;;;;;;5021097;28;20057;-79
2021/09/02 00:18:34;;;;;;;13.07;3.70;;;;;;;;;;5019919;28;20030;-79
2021/09/02 00:21:00;;;;;;;13.80;3.88;;;;;;;;;;5016538;28;20679;-80
2021/09/02 00:23:26;;;;;;;12.63;3.45;;;;;;;;;;5017235;28;20248;-80
2021/09/02 00:25:52;;;;;;;14.30;3.80;;;;;;;;;;5023242;28;20021;-80
2021/09/02 00:28:20;;;;;;;15.05;3.60;;;;;;;;;;5021480;28;20492;-80
2021/09/02 00:30:46;;;;;;;11.13;3.35;;;;;;;;;;5018658;28;20495;-80
2021/09/02 00:33:16;;;;;;;14.20;4.05;;;;;;;;;;5023512;28;20033;-80
2021/09/02 00:35:42;;;;;;;14.43;4.03;;;;;;;;;;5039577;28;20029;-80
2021/09/02 00:38:09;;;;;;;13.95;4.00;;;;;;;;;;5026716;28;20045;-79
2021/09/02 00:40:35;;;;;;;12.77;3.20;;;;;;;;;;5027976;28;20025;-80
2021/09/02 00:43:01;;;;;;;11.70;3.28;;;;;;;;;;5025321;28;20052;-80
2021/09/02 00:45:27;;;;;;;15.60;3.80;;;;;;;;;;5025409;28;20045;-79
2021/09/02 00:47:53;;;;;;;12.32;3.35;;;;;;;;;;5021331;28;20021;-80
2021/09/02 00:50:19;;;;;;;18.10;3.90;;;;;;;;;;5029654;28;20025;-80
2021/09/02 00:52:47;;;;;;;12.77;3.65;;;;;;;;;;5025061;28;20032;-80
2021/09/02 00:55:13;;;;;;;14.52;3.85;;;;;;;;;;5028662;28;20025;-80
2021/09/02 00:57:40;;;;;;;13.98;3.35;;;;;;;;;;5040217;28;20120;-80
2021/09/02 01:00:08;;;;;;;17.90;3.55;;;;;;;;;;5025938;28;20238;-79
2021/09/02 01:02:34;;;;;;;12.75;3.65;;;;;;;;;;5028062;28;20017;-80
2021/09/02 01:05:00;;;;;;;14.48;3.47;;;;;;;;;;5020978;28;20045;-79
2021/09/02 01:07:31;;;;;;;15.65;4.35;;;;;;;;;;5036081;28;20063;-80
2021/09/02 01:09:58;;;;;;;13.57;3.70;;;;;;;;;;5016798;28;20053;-79
2021/09/02 01:12:44;;;;;;;10.73;3.33;;;;;;;;;;5020489;28;20041;-80
2021/09/02 01:15:12;;;;;;;16.27;4.60;;;;;;;;;;5036158;28;20124;-79
2021/09/02 01:17:39;;;;;;;18.17;3.97;;;;;;;;;;5019121;28;20033;-80
2021/09/02 01:20:06;;;;;;;13.82;3.58;;;;;;;;;;5016518;28;20041;-81
2021/09/02 01:22:32;;;;;;;14.07;3.85;;;;;;;;;;5018522;28;20108;-79
2021/09/02 01:25:00;;;;;;;14.07;3.83;;;;;;;;;;5010609;28;20037;-80
2021/09/02 01:27:27;;;;;;;17.52;3.95;;;;;;;;;;5026209;28;20059;-80
2021/09/02 01:29:54;;;;;;;16.63;4.40;;;;;;;;;;5007728;28;20034;-78
2021/09/02 01:32:20;;;;;;;17.80;4.55;;;;;;;;;;5016599;28;20569;-78
2021/09/02 01:34:46;;;;;;;19.25;4.45;;;;;;;;;;5013144;28;20033;-79
2021/09/02 01:37:13;;;;;;;19.25;4.88;;;;;;;;;;5013648;28;20135;-79
2021/09/02 01:39:39;;;;;;;19.90;4.82;;;;;;;;;;5012921;28;20037;-79
2021/09/02 01:42:05;;;;;;;19.35;4.38;;;;;;;;;;5010792;28;20034;-80
2021/09/02 01:44:31;;;;;;;18.35;4.13;;;;;;;;;;5017942;28;20029;-81
2021/09/02 01:46:57;;;;;;;15.75;4.43;;;;;;;;;;5003104;28;20037;-82
2021/09/02 01:49:23;;;;;;;16.95;4.28;;;;;;;;;;5008272;28;20041;-80
2021/09/02 01:51:50;;;;;;;19.65;4.63;;;;;;;;;;5005331;28;20120;-80
2021/09/02 01:54:16;;;;;;;18.38;3.88;;;;;;;;;;5013298;28;20076;-80
2021/09/02 01:56:42;;;;;;;16.95;4.70;;;;;;;;;;5018144;28;20564;-81
2021/09/02 01:59:08;;;;;;;16.15;4.10;;;;;;;;;;5019340;28;20310;-79
2021/09/02 02:01:34;;;;;;;19.90;4.03;;;;;;;;;;5026075;28;20030;-80
2021/09/02 02:04:00;;;;;;;18.15;4.30;;;;;;;;;;5020798;28;20033;-80
2021/09/02 02:06:27;;;;;;;15.43;4.03;;;;;;;;;;5018378;28;20507;-80
2021/09/02 02:08:53;;;;;;;18.83;4.18;;;;;;;;;;5020976;28;20044;-80
2021/09/02 02:11:19;;;;;;;17.35;4.25;;;;;;;;;;5020284;28;20052;-81
2021/09/02 02:13:46;;;;;;;18.80;4.65;;;;;;;;;;5015863;28;20053;-80
2021/09/02 02:16:12;;;;;;;19.67;5.00;;;;;;;;;;5019327;28;20041;-79
2021/09/02 02:18:38;;;;;;;21.65;4.30;;;;;;;;;;5022577;28;20029;-79
2021/09/02 02:21:04;;;;;;;19.58;4.85;;;;;;;;;;5012356;28;20033;-80
2021/09/02 02:23:31;;;;;;;16.38;4.25;;;;;;;;;;5013702;28;20055;-80
2021/09/02 02:25:57;;;;;;;20.50;4.40;;;;;;;;;;5010092;28;20539;-80
2021/09/02 02:28:23;;;;;;;20.48;4.55;;;;;;;;;;5012227;28;20034;-79
2021/09/02 02:30:49;;;;;;;15.80;4.63;;;;;;;;;;5009473;28;20049;-79
2021/09/02 02:33:15;;;;;;;18.27;5.15;;;;;;;;;;5014854;28;20032;-80
2021/09/02 02:35:41;;;;;;;16.20;4.35;;;;;;;;;;5012473;28;20057;-79
2021/09/02 02:38:08;;;;;;;17.38;5.10;;;;;;;;;;5018264;28;20022;-82
2021/09/02 02:40:34;;;;;;;20.30;4.60;;;;;;;;;;5018936;28;20041;-80
2021/09/02 02:43:02;;;;;;;16.60;4.05;;;;;;;;;;5028344;28;20040;-80
2021/09/02 02:45:28;;;;;;;23.00;4.72;;;;;;;;;;5019180;28;20025;-79
2021/09/02 02:47:54;;;;;;;24.15;4.88;;;;;;;;;;5016745;28;20021;-80
2021/09/02 02:50:20;;;;;;;23.67;4.88;;;;;;;;;;5023015;28;20025;-80
2021/09/02 02:52:46;;;;;;;20.60;4.50;;;;;;;;;;5018538;28;20032;-79
2021/09/02 02:55:13;;;;;;;16.55;4.28;;;;;;;;;;5019631;28;20025;-78
2021/09/02 02:57:39;;;;;;;16.90;4.35;;;;;;;;;;5018286;28;20030;-79
2021/09/02 03:00:05;;;;;;;17.83;4.47;;;;;;;;;;5014009;28;20046;-79
2021/09/02 03:02:32;;;;;;;20.92;5.03;;;;;;;;;;5017543;28;20145;-78
2021/09/02 03:04:58;;;;;;;21.95;4.85;;;;;;;;;;5017748;28;20545;-79
2021/09/02 03:07:24;;;;;;;21.27;4.80;;;;;;;;;;5021255;28;20042;-79
2021/09/02 03:09:50;;;;;;;20.98;4.57;;;;;;;;;;5010878;28;20033;-79
2021/09/02 03:12:16;;;;;;;25.10;5.43;;;;;;;;;;5014630;28;20469;-79
2021/09/02 03:14:43;;;;;;;19.85;4.93;;;;;;;;;;5009336;28;20045;-80
2021/09/02 03:17:09;;;;;;;24.38;5.22;;;;;;;;;;5001404;28;20776;-81
2021/09/02 03:19:35;;;;;;;21.75;5.22;;;;;;;;;;5000015;28;20025;-82
2021/09/02 03:22:02;;;;;;;31.95;5.80;;;;;;;;;;4998596;28;20321;-84
2021/09/02 03:24:28;;;;;;;27.67;6.03;;;;;;;;;;5004980;28;20025;-83
2021/09/02 03:26:54;;;;;;;19.42;4.90;;;;;;;;;;4996542;28;20045;-83
2021/09/02 03:29:20;;;;;;;24.15;5.22;;;;;;;;;;5005639;28;20357;-84
2021/09/02 03:31:46;;;;;;;25.92;6.55;;;;;;;;;;4995855;28;20133;-84
2021/09/02 03:34:13;;;;;;;23.23;5.72;;;;;;;;;;5005659;28;20028;-84
2021/09/02 03:36:41;;;;;;;26.33;6.15;;;;;;;;;;5005733;28;20051;-85
2021/09/02 03:39:07;;;;;;;23.77;6.10;;;;;;;;;;5003795;28;20051;-84
2021/09/02 03:41:33;;;;;;;25.38;5.93;;;;;;;;;;5005152;28;20057;-83
2021/09/02 03:43:59;;;;;;;27.17;6.55;;;;;;;;;;5001853;28;20445;-83
2021/09/02 03:46:26;;;;;;;27.13;6.35;;;;;;;;;;5007303;28;20789;-84
2021/09/02 03:48:52;;;;;;;24.95;5.45;;;;;;;;;;5003899;28;20029;-83
2021/09/02 03:51:18;;;;;;;26.42;6.20;;;;;;;;;;5003006;28;20124;-83
2021/09/02 03:53:44;;;;;;;27.75;7.18;;;;;;;;;;5003224;28;20049;-83
2021/09/02 03:56:10;;;;;;;28.85;7.72;;;;;;;;;;5003749;28;20056;-83
2021/09/02 03:58:36;;;;;;;27.27;6.70;;;;;;;;;;5005639;28;20038;-83
2021/09/02 04:01:03;;;;;;;24.95;5.85;;;;;;;;;;4998939;28;20029;-82
2021/09/02 04:03:29;;;;;;;24.45;6.15;;;;;;;;;;5003185;28;20120;-83
2021/09/02 04:05:55;;;;;;;22.75;5.70;;;;;;;;;;5011925;28;20021;-83
2021/09/02 04:08:21;;;;;;;21.42;5.65;;;;;;;;;;5018486;28;20050;-83
2021/09/02 04:10:47;;;;;;;24.02;5.40;;;;;;;;;;5009436;28;20029;-83
2021/09/02 04:13:13;;;;;;;24.83;4.75;;;;;;;;;;5005624;28;20708;-83
2021/09/02 04:15:40;;;;;;;17.75;4.43;;;;;;;;;;5002823;28;20029;-83
2021/09/02 04:18:06;;;;;;;18.05;4.20;;;;;;;;;;5003406;28;20559;-83
2021/09/02 04:20:32;;;;;;;16.95;4.07;;;;;;;;;;5004752;28;20040;-84
2021/09/02 04:22:58;;;;;;;14.10;3.83;;;;;;;;;;5001405;28;20479;-84
2021/09/02 04:25:24;;;;;;;16.40;3.47;;;;;;;;;;5002107;28;20064;-83
2021/09/02 04:27:51;;;;;;;15.07;3.10;;;;;;;;;;4997317;28;20025;-84
2021/09/02 04:30:17;;;;;;;15.98;3.38;;;;;;;;;;5003575;28;20519;-84
2021/09/02 04:32:43;;;;;;;14.32;3.10;;;;;;;;;;4999221;28;20033;-84
2021/09/02 04:35:10;;;;;;;18.70;4.25;;;;;;;;;;5002675;28;20152;-84
2021/09/02 04:37:40;;;;;;;16.35;4.10;;;;;;;;;;5003014;28;20037;-84
2021/09/02 04:40:09;;;;;;;21.77;4.65;;;;;;;;;;5003506;28;20486;-84
2021/09/02 04:42:35;;;;;;;20.80;5.00;;;;;;;;;;5003345;28;20025;-84
2021/09/02 04:45:02;;;;;;;21.63;4.68;;;;;;;;;;4994801;28;20469;-85
2021/09/02 04:47:28;;;;;;;23.15;5.35;;;;;;;;;;4999497;28;20048;-85
2021/09/02 04:49:55;;;;;;;19.70;4.47;;;;;;;;;;4999332;28;20035;-84
2021/09/02 04:52:21;;;;;;;20.77;4.22;;;;;;;;;;5004618;28;20083;-84
2021/09/02 04:54:47;;;;;;;18.85;4.25;;;;;;;;;;4999621;28;20018;-84
2021/09/02 04:57:13;;;;;;;17.67;3.35;;;;;;;;;;5020248;28;20013;-84
2021/09/02 04:59:40;;;;;;;15.40;3.13;;;;;;;;;;5022476;28;20042;-83
2021/09/02 05:02:06;;;;;;;15.55;3.22;;;;;;;;;;5018755;28;20031;-83
2021/09/02 05:04:32;;;;;;;15.98;2.97;;;;;;;;;;5012820;28;20556;-83
2021/09/02 05:06:58;;;;;;;13.23;3.20;;;;;;;;;;5003431;28;20092;-83
2021/09/02 05:09:24;;;;;;;14.75;3.40;;;;;;;;;;5006962;28;20065;-83
2021/09/02 05:11:50;;;;;;;15.85;3.50;;;;;;;;;;5002550;28;20030;-83
2021/09/02 05:14:16;;;;;;;15.63;3.38;;;;;;;;;;5006814;28;20092;-82
2021/09/02 05:16:43;;;;;;;17.80;3.60;;;;;;;;;;5010917;28;20109;-82
2021/09/02 05:19:09;;;;;;;23.67;3.40;;;;;;;;;;5013497;28;20033;-83
2021/09/02 05:21:35;;;;;;;16.63;3.42;;;;;;;;;;5006191;28;20060;-83
2021/09/02 05:24:01;;;;;;;15.30;3.03;;;;;;;;;;5001689;28;20037;-82
2021/09/02 05:26:27;;;;;;;16.20;3.10;;;;;;;;;;5005353;28;20059;-83
2021/09/02 05:28:53;;;;;;;13.43;2.63;;;;;;;;;;5000570;28;20535;-83
2021/09/02 05:31:20;;;;;;;13.35;3.08;;;;;;;;;;5003814;28;20678;-82
2021/09/02 05:33:46;;;;;;;20.40;3.03;;;;;;;;;;4999611;28;20022;-82
2021/09/02 05:36:12;;;;;;;15.95;3.17;;;;;;;;;;5005994;28;20037;-83
2021/09/02 05:38:39;;;;;;;17.90;3.35;;;;;;;;;;5010937;28;20030;-81
2021/09/02 05:41:05;;;;;;;11.93;3.75;;;;;;;;;;5011872;28;20388;-83
2021/09/02 05:43:31;;;;;;;20.27;4.35;;;;;;;;;;5012061;28;20037;-82
2021/09/02 05:46:01;;;;;;;20.88;6.13;;;;;;;;;;5011705;28;20041;-83
2021/09/02 05:48:27;;;;;;;24.35;6.85;;;;;;;;;;5011243;28;20026;-82
2021/09/02 05:50:54;;;;;;;29.08;7.65;;;;;;;;;;5013589;28;20021;-81
2021/09/02 05:53:20;;;;;;;21.80;6.15;;;;;;;;;;5010677;28;20446;-80
2021/09/02 05:55:48;;;;;;;21.88;5.68;;;;;;;;;;5004372;28;20036;-79
2021/09/02 05:58:14;;;;;;;18.75;5.47;;;;;;;;;;5007265;28;20025;-80
2021/09/02 06:00:41;;;;;;;16.52;3.80;;;;;;;;;;5000701;28;21043;-80
2021/09/02 06:03:07;;;;;;;19.25;4.68;;;;;;;;;;5009831;28;20033;-79
2021/09/02 06:05:33;;;;;;;18.42;4.18;;;;;;;;;;5004203;28;20033;-79
2021/09/02 06:07:59;;;;;;;18.58;4.35;;;;;;;;;;4998727;28;20030;-80
2021/09/02 06:10:25;;;;;;;18.60;4.07;;;;;;;;;;5022425;28;20188;-79
2021/09/02 06:12:53;;;;;;;22.60;4.35;;;;;;;;;;4996914;28;20029;-79
2021/09/02 06:15:19;;;;;;;19.17;3.75;;;;;;;;;;5004985;28;20025;-78
2021/09/02 06:17:46;;;;;;;19.23;3.90;;;;;;;;;;4998914;28;20661;-79
2021/09/02 06:20:12;;;;;;;15.02;3.17;;;;;;;;;;4999782;28;20087;-79
2021/09/02 06:22:39;;;;;;;15.35;3.40;;;;;;;;;;4998663;28;20068;-79
2021/09/02 06:25:05;;;;;;;18.05;3.60;;;;;;;;;;4998436;28;20120;-79
2021/09/02 06:27:31;;;;;;;17.63;4.05;;;;;;;;;;5001508;28;20085;-79
2021/09/02 06:29:58;;;;;;;19.25;4.03;;;;;;;;;;4993882;28;20030;-79
2021/09/02 06:32:24;;;;;;;18.83;4.20;;;;;;;;;;4997096;28;20033;-79
2021/09/02 06:34:50;;;;;;;22.13;4.22;;;;;;;;;;4998036;28;20029;-79
2021/09/02 06:37:16;;;;;;;15.45;3.72;;;;;;;;;;5000118;28;20142;-80
2021/09/02 06:39:42;;;;;;;21.85;3.83;;;;;;;;;;5000010;28;20033;-79
2021/09/02 06:42:08;;;;;;;23.77;3.72;;;;;;;;;;5001205;28;20030;-79
2021/09/02 06:44:34;;;;;;;16.13;3.22;;;;;;;;;;5000126;28;20121;-79
2021/09/02 06:47:01;;;;;;;17.40;3.20;;;;;;;;;;5005229;28;20032;-79
2021/09/02 06:49:27;;;;;;;20.88;4.13;;;;;;;;;;5004129;28;20171;-79
2021/09/02 06:51:53;;;;;;;20.75;3.33;;;;;;;;;;4996515;28;20497;-79
2021/09/02 06:54:20;;;;;;;19.40;3.28;;;;;;;;;;4998781;28;20036;-80
2021/09/02 06:56:46;;;;;;;18.33;3.45;;;;;;;;;;4996811;28;20033;-80
2021/09/02 06:59:13;;;;;;;17.73;3.45;;;;;;;;;;5003128;28;20025;-79
2021/09/02 07:01:39;;;;;;;23.10;4.07;;;;;;;;;;5003045;28;20052;-79
2021/09/02 07:04:05;;;;;;;16.42;3.50;;;;;;;;;;5002736;28;20088;-79
2021/09/02 07:06:31;;;;;;;25.25;4.30;;;;;;;;;;5017506;28;20035;-79
2021/09/02 07:08:57;;;;;;;19.83;3.83;;;;;;;;;;5029618;28;20049;-80
2021/09/02 07:11:24;;;;;;;23.17;4.47;;;;;;;;;;5013875;28;20018;-80
2021/09/02 07:13:50;;;;;;;24.55;4.28;;;;;;;;;;5005423;28;20030;-79
2021/09/02 07:16:16;;;;;;;22.27;4.10;;;;;;;;;;5005351;28;20029;-80
2021/09/02 07:18:42;;;;;;;22.35;4.28;;;;;;;;;;4999941;28;20037;-80
2021/09/02 07:21:08;;;;;;;26.55;4.50;;;;;;;;;;5004097;28;20040;-80
2021/09/02 07:23:34;;;;;;;19.50;3.78;;;;;;;;;;5005937;28;20075;-79
2021/09/02 07:26:00;;;;;;;26.17;4.53;;;;;;;;;;5002775;28;20158;-80
2021/09/02 07:28:27;;;;;;;22.13;4.05;;;;;;;;;;5005913;28;20025;-79
2021/09/02 07:30:53;;;;;;;18.30;3.95;;;;;;;;;;5002129;28;20092;-79
2021/09/02 07:33:19;;;;;;;19.27;3.50;;;;;;;;;;5002605;28;20500;-79
2021/09/02 07:35:45;;;;;;;21.15;3.85;;;;;;;;;;5000924;28;20148;-78
2021/09/02 07:38:11;;;;;;;19.95;4.38;;;;;;;;;;5001698;28;20025;-78
2021/09/02 07:40:37;;;;;;;17.92;4.35;;;;;;;;;;5006219;28;20025;-80
2021/09/02 07:43:03;;;;;;;22.23;4.38;;;;;;;;;;5015214;28;20025;-81
2021/09/02 07:45:30;;;;;;;17.83;4.40;;;;;;;;;;5006520;28;20113;-81
2021/09/02 07:47:56;;;;;;;20.27;3.97;;;;;;;;;;5003802;28;20052;-81
2021/09/02 07:50:22;;;;;;;20.67;4.18;;;;;;;;;;5011110;28;20029;-82
2021/09/02 07:52:48;;;;;;;21.23;4.68;;;;;;;;;;5001298;28;20087;-83
2021/09/02 07:55:15;;;;;;;18.38;4.55;;;;;;;;;;5005520;28;20065;-82
2021/09/02 07:57:47;;;;;;;20.42;3.92;;;;;;;;;;5000485;28;20396;-82
2021/09/02 08:00:13;;;;;;;24.90;4.97;;;;;;;;;;5006730;28;20729;-82
2021/09/02 08:02:39;;;;;;;22.83;3.95;;;;;;;;;;5005097;28;20032;-82
2021/09/02 08:05:06;;;;;;;18.88;4.32;;;;;;;;;;5000241;28;20500;-81
2021/09/02 08:07:32;;;;;;;20.30;4.20;;;;;;;;;;5004100;28;20053;-82
2021/09/02 08:09:58;;;;;;;21.38;4.35;;;;;;;;;;4997325;28;20045;-81
2021/09/02 08:12:24;;;;;;;18.83;4.30;;;;;;;;;;5003321;28;20124;-82
2021/09/02 08:14:50;;;;;;;21.58;4.75;;;;;;;;;;4999966;28;20026;-81
2021/09/02 08:17:17;;;;;;;22.35;4.60;;;;;;;;;;5000558;28;20042;-81
2021/09/02 08:19:43;;;;;;;25.35;4.72;;;;;;;;;;4996838;28;20036;-82
2021/09/02 08:22:09;;;;;;;19.23;4.22;;;;;;;;;;5000580;28;20092;-81
2021/09/02 08:24:35;;;;;;;22.90;4.25;;;;;;;;;;5007391;28;20037;-82
2021/09/02 08:27:01;;;;;;;21.77;4.65;;;;;;;;;;5001315;28;20091;-82
2021/09/02 08:29:28;;;;;;;17.55;4.65;;;;;;;;;;5005937;28;20039;-82
2021/09/02 08:31:54;;;;;;;20.00;4.75;;;;;;;;;;5005100;28;20040;-83
2021/09/02 08:34:20;;;;;;;19.35;4.35;;;;;;;;;;5006137;28;20065;-81
2021/09/02 08:36:46;;;;;;;19.48;4.18;;;;;;;;;;5004218;28;20055;-83
2021/09/02 08:39:12;;;;;;;18.80;4.38;;;;;;;;;;5007261;28;20033;-83
2021/09/02 08:41:39;;;;;;;25.92;4.78;;;;;;;;;;5000675;28;20025;-83
2021/09/02 08:44:05;;;;;;;24.33;5.47;;;;;;;;;;5005014;28;20029;-82
2021/09/02 08:46:31;;;;;;;23.77;5.15;;;;;;;;;;5003810;28;20033;-83
2021/09/02 08:49:00;;;;;;;21.00;4.95;;;;;;;;;;5002084;28;20030;-82
2021/09/02 08:51:26;;;;;;;25.92;5.18;;;;;;;;;;5003505;28;20086;-82
2021/09/02 08:53:54;;;;;;;21.83;4.47;;;;;;;;;;4998357;28;20113;-83
2021/09/02 08:56:20;;;;;;;25.20;5.30;;;;;;;;;;5001938;28;20029;-82
2021/09/02 08:58:46;;;;;;;22.67;6.10;;;;;;;;;;5000025;28;20025;-82
2021/09/02 09:01:12;;;;;;;24.10;5.53;;;;;;;;;;5003198;28;20033;-83
2021/09/02 09:03:38;;;;;;;22.52;5.25;;;;;;;;;;5006378;28;20029;-82
2021/09/02 09:06:08;;;;;;;24.00;4.93;;;;;;;;;;5000493;28;20041;-82
2021/09/02 09:08:40;;;;;;;25.88;5.47;;;;;;;;;;5007578;28;20237;-81
2021/09/02 09:11:24;;;;;;;20.23;4.78;;;;;;;;;;5003894;28;20025;-82
2021/09/02 09:14:15;;;;;;;31.20;5.47;;;;;;;;;;5001857;28;20414;-82
2021/09/02 09:16:42;;;;;;;23.38;4.57;;;;;;;;;;4997632;28;20141;-82
2021/09/02 09:19:09;;;;;;;31.65;6.35;;;;;;;;;;5002516;28;20507;-81
2021/09/02 09:21:35;;;;;;;24.75;4.82;;;;;;;;;;5006189;28;20042;-82
2021/09/02 09:24:06;;;;;;;31.52;6.43;;;;;;;;;;5002634;28;20060;-81
2021/09/02 09:26:33;;;;;;;28.52;5.75;;;;;;;;;;5006028;28;20036;-82
2021/09/02 09:29:16;;;;;;;35.25;5.40;;;;;;;;;;5015703;28;20158;-80
2021/09/02 09:31:43;;;;;;;30.95;5.90;;;;;;;;;;4998604;28;20072;-81
2021/09/02 09:34:09;;;;;;;26.13;4.68;;;;;;;;;;5005455;28;20468;-81
2021/09/02 09:36:36;;;;;;;31.42;6.35;;;;;;;;;;5004727;28;20037;-81
2021/09/02 09:39:05;;;;;;;26.13;6.07;;;;;;;;;;4999926;28;20049;-81
2021/09/02 09:41:35;;;;;;;36.70;6.03;;;;;;;;;;5004125;28;20021;-83
2021/09/02 09:44:22;;;;;;;25.98;5.72;;;;;;;;;;5002612;28;20122;-81
2021/09/02 09:47:08;;;;;;;33.50;5.63;;;;;;;;;;5003203;28;20029;-82
2021/09/02 09:49:41;;;;;;;35.60;6.20;;;;;;;;;;5004294;28;20038;-82
2021/09/02 09:52:23;;;;;;;29.92;6.20;;;;;;;;;;5006052;28;20030;-83
2021/09/02 09:54:50;;;;;;;28.48;6.25;;;;;;;;;;5000133;28;20110;-81
2021/09/02 09:57:16;;;;;;;31.25;6.32;;;;;;;;;;5005662;28;20022;-81
2021/09/02 09:59:43;;;;;;;35.70;6.63;;;;;;;;;;5004000;28;20025;-83
2021/09/02 10:02:09;;;;;;;31.40;5.93;;;;;;;;;;5001730;28;20025;-82
2021/09/02 10:04:35;;;;;;;26.10;5.70;;;;;;;;;;4998058;28;20057;-83
2021/09/02 10:07:04;;;;;;;30.52;5.85;;;;;;;;;;4996993;28;20684;-82
2021/09/02 10:09:31;;;;;;;23.08;5.57;;;;;;;;;;5005624;28;20119;-81
2021/09/02 10:11:58;;;;;;;31.23;6.78;;;;;;;;;;5000371;28;20116;-80
2021/09/02 10:14:24;;;;;;;32.63;6.25;;;;;;;;;;5000260;28;20033;-83
2021/09/02 10:16:50;;;;;;;30.15;5.63;;;;;;;;;;5015960;28;20648;-81
2021/09/02 10:19:17;;;;;;;30.55;5.65;;;;;;;;;;5002586;28;20492;-81
2021/09/02 10:21:43;;;;;;;43.97;6.63;;;;;;;;;;4998294;28;20037;-80
2021/09/02 10:24:28;;;;;;;31.55;5.95;;;;;;;;;;5005923;28;20033;-81
2021/09/02 10:26:54;;;;;;;33.90;6.53;;;;;;;;;;4995662;28;20030;-81
2021/09/02 10:29:33;;;;;;;27.13;5.72;;;;;;;;;;5006963;28;20100;-81
2021/09/02 10:32:18;;;;;;;28.55;6.43;;;;;;;;;;4998191;28;20036;-81
2021/09/02 10:34:44;;;;;;;30.83;6.35;;;;;;;;;;4994745;28;20033;-81
2021/09/02 10:37:10;;;;;;;30.15;5.97;;;;;;;;;;5020576;28;20034;-81
2021/09/02 10:39:42;;;;;;;33.33;6.57;;;;;;;;;;5001087;28;20173;-81
2021/09/02 10:42:09;;;;;;;28.23;5.65;;;;;;;;;;5001261;28;20029;-82
2021/09/02 10:44:50;;;;;;;29.55;6.03;;;;;;;;;;5002965;28;20469;-81
2021/09/02 10:47:18;;;;;;;31.40;6.25;;;;;;;;;;5001679;28;20524;-82
2021/09/02 10:49:59;;;;;;;31.00;6.03;;;;;;;;;;5002890;28;20032;-81
2021/09/02 10:52:30;;;;;;;36.38;6.60;;;;;;;;;;5016678;28;20641;-81
2021/09/02 10:55:16;;;;;;;31.83;6.38;;;;;;;;;;4995807;28;20029;-82
2021/09/02 10:57:42;;;;;;;29.17;6.55;;;;;;;;;;4997740;28;20037;-81
2021/09/02 11:00:28;;;;;;;33.28;6.35;;;;;;;;;;5007886;28;20025;-81
2021/09/02 11:03:12;;;;;;;33.53;6.68;;;;;;;;;;5014985;28;20122;-81
2021/09/02 11:05:38;;;;;;;31.55;6.45;;;;;;;;;;5012229;28;20235;-81
2021/09/02 11:08:04;;;;;;;40.60;7.43;;;;;;;;;;5001297;28;20045;-82
2021/09/02 11:10:31;;;;;;;41.28;7.00;;;;;;;;;;5001969;28;20022;-81
2021/09/02 11:13:04;;;;;;;31.65;6.40;;;;;;;;;;4995095;28;20034;-81
2021/09/02 11:15:31;;;;;;;37.30;6.45;;;;;;;;;;5000389;28;20113;-81
2021/09/02 11:17:58;;;;;;;26.17;5.55;;;;;;;;;;4996828;28;20117;-81
2021/09/02 11:20:26;;;;;;;29.52;6.82;;;;;;;;;;4999954;28;20099;-80
2021/09/02 11:23:06;;;;;;;34.72;6.43;;;;;;;;;;4999518;28;20077;-83
2021/09/02 11:25:38;;;;;;;25.75;5.30;;;;;;;;;;5017667;28;20029;-81
2021/09/02 11:28:06;;;;;;;26.02;5.88;;;;;;;;;;5001270;28;20373;-81
2021/09/02 11:30:34;;;;;;;29.90;5.97;;;;;;;;;;5002333;28;20116;-82
2021/09/02 11:33:01;;;;;;;28.58;6.25;;;;;;;;;;5012763;28;20087;-81
2021/09/02 11:35:27;;;;;;;27.58;5.85;;;;;;;;;;5006162;28;20068;-81
2021/09/02 11:37:54;;;;;;;31.38;5.72;;;;;;;;;;5001829;28;20091;-82
2021/09/02 11:40:22;;;;;;;31.95;5.88;;;;;;;;;;5005672;28;20091;-81
2021/09/02 11:42:48;;;;;;;32.17;6.18;;;;;;;;;;5001697;28;20037;-82
2021/09/02 11:45:18;;;;;;;25.77;5.32;;;;;;;;;;5004606;28;20021;-81
2021/09/02 11:47:46;;;;;;;32.67;6.00;;;;;;;;;;5001234;28;20049;-82
2021/09/02 11:50:13;;;;;;;28.88;6.15;;;;;;;;;;5006841;28;20029;-81
2021/09/02 11:52:44;;;;;;;27.00;6.25;;;;;;;;;;5007316;28;20621;-82
2021/09/02 11:55:27;;;;;;;32.60;6.32;;;;;;;;;;5020916;28;20041;-82
2021/09/02 11:58:01;;;;;;;36.70;6.90;;;;;;;;;;5015109;28;20040;-82
2021/09/02 12:00:28;;;;;;;25.30;5.90;;;;;;;;;;5003948;28;20021;-82
2021/09/02 12:02:58;;;;;;;29.95;5.93;;;;;;;;;;4999731;28;20033;-83
2021/09/02 12:05:35;;;;;;;27.35;5.32;;;;;;;;;;5004903;28;20033;-81
2021/09/02 12:08:02;;;;;;;32.33;6.18;;;;;;;;;;4998756;28;20033;-81
2021/09/02 12:10:28;;;;;;;29.88;5.95;;;;;;;;;;5005267;28;20041;-82
2021/09/02 12:12:55;;;;;;;25.83;6.05;;;;;;;;;;5004954;28;20804;-82
2021/09/02 12:15:23;;;;;;;29.17;6.35;;;;;;;;;;5006455;28;20025;-82
2021/09/02 12:17:50;;;;;;;26.75;5.75;;;;;;;;;;4998602;28;20048;-82
2021/09/02 12:20:25;;;;;;;26.77;5.82;;;;;;;;;;5003272;28;20031;-82
2021/09/02 12:22:51;;;;;;;25.38;5.57;;;;;;;;;;4999378;28;20132;-82
2021/09/02 12:25:21;;;;;;;31.92;6.43;;;;;;;;;;5002748;28;20048;-82
2021/09/02 12:27:52;;;;;;;28.02;5.80;;;;;;;;;;4997790;28;20028;-82
2021/09/02 12:30:38;;;;;;;28.77;6.07;;;;;;;;;;5004154;28;20030;-82
2021/09/02 12:33:14;;;;;;;32.08;5.43;;;;;;;;;;5000702;28;20017;-82
2021/09/02 12:35:41;;;;;;;27.70;5.97;;;;;;;;;;5003613;28;20093;-82
2021/09/02 12:38:30;;;;;;;27.10;5.47;;;;;;;;;;5005000;28;20041;-82
2021/09/02 12:41:16;;;;;;;29.45;6.10;;;;;;;;;;5002420;28;20037;-81
2021/09/02 12:44:01;;;;;;;31.42;6.85;;;;;;;;;;4999834;28;20026;-81
2021/09/02 12:46:28;;;;;;;32.08;6.43;;;;;;;;;;5005133;28;20041;-81
2021/09/02 12:49:09;;;;;;;31.60;6.57;;;;;;;;;;5001954;28;20048;-81
2021/09/02 12:51:35;;;;;;;35.20;6.78;;;;;;;;;;5002511;28;20043;-83
2021/09/02 12:54:01;;;;;;;27.00;6.30;;;;;;;;;;5004237;28;20843;-82
2021/09/02 12:56:37;;;;;;;24.90;5.68;;;;;;;;;;5000872;28;20555;-83
2021/09/02 12:59:04;;;;;;;30.55;5.90;;;;;;;;;;4996451;28;20042;-83
2021/09/02 13:01:30;;;;;;;24.52;5.18;;;;;;;;;;5002972;28;20061;-82
2021/09/02 13:04:00;;;;;;;26.95;5.43;;;;;;;;;;4997840;28;20443;-82
2021/09/02 13:06:30;;;;;;;30.13;5.18;;;;;;;;;;5002752;28;20125;-83
2021/09/02 13:09:00;;;;;;;29.25;6.03;;;;;;;;;;4996843;28;20099;-84
2021/09/02 13:11:27;;;;;;;27.42;5.07;;;;;;;;;;5001152;28;20484;-83
2021/09/02 13:13:53;;;;;;;26.30;5.22;;;;;;;;;;5002565;28;20549;-81
2021/09/02 13:16:19;;;;;;;25.92;5.20;;;;;;;;;;5009613;28;20026;-82
2021/09/02 13:18:46;;;;;;;24.23;5.88;;;;;;;;;;5000248;28;20025;-82
2021/09/02 13:21:12;;;;;;;22.23;4.43;;;;;;;;;;5003769;28;20066;-83
2021/09/02 13:23:38;;;;;;;23.45;4.80;;;;;;;;;;5001910;28;20033;-83
2021/09/02 13:26:04;;;;;;;22.17;4.78;;;;;;;;;;5019094;28;20072;-82
2021/09/02 13:28:30;;;;;;;23.42;4.25;;;;;;;;;;5015194;28;20362;-83
2021/09/02 13:30:57;;;;;;;19.65;4.35;;;;;;;;;;5005671;28;20657;-82
2021/09/02 13:33:23;;;;;;;22.35;4.20;;;;;;;;;;5003191;28;20029;-82
2021/09/02 13:35:49;;;;;;;21.80;4.55;;;;;;;;;;4999301;28;20026;-82
2021/09/02 13:38:15;;;;;;;17.50;4.15;;;;;;;;;;5005437;28;20022;-82
2021/09/02 13:40:41;;;;;;;22.02;4.20;;;;;;;;;;4998700;28;20087;-82
2021/09/02 13:43:08;;;;;;;18.90;4.22;;;;;;;;;;5004536;28;20029;-82
2021/09/02 13:45:34;;;;;;;28.58;4.57;;;;;;;;;;4999056;28;20026;-82
2021/09/02 13:48:00;;;;;;;25.13;4.78;;;;;;;;;;4993742;28;20238;-81
2021/09/02 13:50:26;;;;;;;20.80;4.25;;;;;;;;;;4998502;28;20021;-82
2021/09/02 13:52:52;;;;;;;25.60;5.43;;;;;;;;;;4995402;28;20025;-82
2021/09/02 13:55:18;;;;;;;23.52;4.65;;;;;;;;;;4999900;28;20044;-82
2021/09/02 13:57:45;;;;;;;21.80;4.20;;;;;;;;;;4987607;28;20115;-83
2021/09/02 14:00:14;;;;;;;23.88;4.45;;;;;;;;;;4997503;28;20073;-82
2021/09/02 14:02:41;;;;;;;19.98;4.10;;;;;;;;;;4998816;28;20033;-82
2021/09/02 14:05:08;;;;;;;18.75;3.65;;;;;;;;;;4996253;28;20037;-82
2021/09/02 14:07:35;;;;;;;12.77;2.47;;;;;;;;;;5001285;28;20021;-82
2021/09/02 14:10:01;;;;;;;17.33;2.72;;;;;;;;;;4992987;28;20160;-82
2021/09/02 14:12:27;;;;;;;16.85;2.97;;;;;;;;;;5003015;28;20453;-82
2021/09/02 14:14:53;;;;;;;18.27;3.58;;;;;;;;;;4993471;28;20021;-82
2021/09/02 14:17:19;;;;;;;20.23;3.50;;;;;;;;;;4994523;28;20041;-82
2021/09/02 14:19:46;;;;;;;12.80;2.90;;;;;;;;;;4997456;28;20033;-81
2021/09/02 14:22:12;;;;;;;17.27;2.50;;;;;;;;;;5013613;28;20037;-83
2021/09/02 14:24:38;;;;;;;14.95;2.10;;;;;;;;;;5008239;28;20111;-82
2021/09/02 14:27:05;;;;;;;9.93;2.00;;;;;;;;;;4995572;28;20099;-81
2021/09/02 14:29:31;;;;;;;11.10;1.88;;;;;;;;;;5020218;28;20025;-81
2021/09/02 14:31:57;;;;;;;18.63;2.85;;;;;;;;;;4995136;28;20038;-82
2021/09/02 14:34:23;;;;;;;14.25;2.63;;;;;;;;;;4997627;28;20269;-82